createdAt,value
2023-08-06T00:01:19.769Z,1.30
2023-08-06T00:03:46.573Z,1.10
2023-08-06T00:06:13.320Z,1.20
2023-08-06T00:08:40.327Z,1.20
2023-08-06T00:11:07.082Z,1.00
2023-08-06T00:13:34.007Z,1.30
2023-08-06T00:16:00.687Z,1.23
2023-08-06T00:18:27.387Z,1.02
2023-08-06T00:20:54.099Z,1.20
2023-08-06T00:23:20.835Z,1.20
2023-08-06T00:25:47.522Z,1.20
2023-08-06T00:28:14.219Z,1.20
2023-08-06T00:30:40.931Z,1.13
2023-08-06T00:33:08.030Z,1.20
2023-08-06T00:35:34.822Z,1.20
2023-08-06T00:38:01.533Z,1.20
2023-08-06T00:40:28.222Z,1.20
2023-08-06T00:42:54.976Z,1.20
2023-08-06T00:45:21.656Z,1.20
2023-08-06T00:47:48.400Z,1.20
2023-08-06T00:50:15.105Z,1.20
2023-08-06T00:52:41.807Z,1.10
2023-08-06T00:55:08.543Z,1.15
2023-08-06T00:57:35.242Z,1.10
2023-08-06T01:00:01.961Z,1.10
2023-08-06T01:02:28.737Z,1.30
2023-08-06T01:04:55.512Z,1.13
2023-08-06T01:07:22.207Z,1.17
2023-08-06T01:09:48.921Z,0.93
2023-08-06T01:12:15.610Z,1.20
2023-08-06T01:14:42.295Z,1.20
2023-08-06T01:17:08.983Z,1.20
2023-08-06T01:19:35.666Z,1.10
2023-08-06T01:22:02.343Z,1.00
2023-08-06T01:24:29.033Z,1.10
2023-08-06T01:26:55.715Z,1.10
2023-08-06T01:29:22.411Z,0.90
2023-08-06T01:31:49.124Z,1.00
2023-08-06T01:34:15.857Z,1.20
2023-08-06T01:36:42.557Z,1.00
2023-08-06T01:39:09.284Z,1.10
2023-08-06T01:41:36.016Z,1.10
2023-08-06T01:44:02.759Z,1.10
2023-08-06T01:46:29.516Z,0.90
2023-08-06T01:48:56.252Z,1.10
2023-08-06T01:51:22.973Z,1.13
2023-08-06T01:53:49.690Z,0.80
2023-08-06T01:56:16.525Z,0.90
2023-08-06T01:58:43.288Z,1.08
2023-08-06T02:01:10.001Z,1.08
2023-08-06T02:03:36.726Z,1.10
2023-08-06T02:06:03.451Z,1.00
2023-08-06T02:08:30.162Z,1.00
2023-08-06T02:10:56.876Z,0.90
2023-08-06T02:13:23.594Z,0.90
2023-08-06T02:15:50.366Z,1.00
2023-08-06T02:18:17.110Z,1.08
2023-08-06T02:20:43.798Z,0.80
2023-08-06T02:23:10.485Z,0.82
2023-08-06T02:25:37.190Z,0.95
2023-08-06T02:28:04.118Z,0.83
2023-08-06T02:30:30.810Z,0.95
2023-08-06T02:32:57.533Z,1.00
2023-08-06T02:35:24.286Z,1.00
2023-08-06T02:37:51.004Z,0.90
2023-08-06T02:40:17.708Z,1.00
2023-08-06T02:42:44.421Z,0.90
2023-08-06T02:45:11.174Z,0.90
2023-08-06T02:47:37.927Z,1.00
2023-08-06T02:50:04.912Z,0.90
2023-08-06T02:52:31.612Z,0.90
2023-08-06T02:54:58.352Z,1.00
2023-08-06T02:57:25.092Z,0.80
2023-08-06T02:59:51.809Z,1.00
2023-08-06T03:02:18.559Z,0.90
2023-08-06T03:04:45.293Z,0.93
2023-08-06T03:07:12.072Z,0.80
2023-08-06T03:09:38.771Z,0.90
2023-08-06T03:12:05.711Z,1.00
2023-08-06T03:14:32.423Z,0.80
2023-08-06T03:16:59.153Z,0.70
2023-08-06T03:19:25.906Z,0.80
2023-08-06T03:21:52.789Z,0.85
2023-08-06T03:24:19.618Z,1.00
2023-08-06T03:26:46.336Z,1.00
2023-08-06T03:29:13.312Z,0.80
2023-08-06T03:31:40.034Z,0.70
2023-08-06T03:34:06.744Z,0.70
2023-08-06T03:36:33.496Z,0.80
2023-08-06T03:39:00.215Z,0.80
2023-08-06T03:41:26.943Z,0.90
2023-08-06T03:43:53.642Z,0.60
2023-08-06T03:46:20.626Z,0.70
2023-08-06T03:48:47.398Z,0.70
2023-08-06T03:51:14.309Z,0.80
2023-08-06T03:53:40.989Z,0.70
2023-08-06T03:56:07.774Z,0.70
2023-08-06T03:58:34.504Z,0.80
2023-08-06T04:01:01.325Z,0.60
2023-08-06T04:03:28.179Z,0.70
2023-08-06T04:05:54.944Z,0.87
2023-08-06T04:08:21.884Z,0.70
2023-08-06T04:10:48.627Z,0.60
2023-08-06T04:13:15.331Z,0.75
2023-08-06T04:15:42.042Z,0.60
2023-08-06T04:18:08.791Z,0.60
2023-08-06T04:20:35.725Z,0.70
2023-08-06T04:23:02.445Z,0.60
2023-08-06T04:25:29.174Z,0.57
2023-08-06T04:27:55.901Z,0.60
2023-08-06T04:30:22.829Z,0.60
2023-08-06T04:32:49.600Z,0.63
2023-08-06T04:35:16.356Z,0.60
2023-08-06T04:37:43.041Z,0.60
2023-08-06T04:40:09.770Z,0.52
2023-08-06T04:42:36.695Z,0.60
2023-08-06T04:45:03.388Z,0.50
2023-08-06T04:47:30.363Z,0.52
2023-08-06T04:49:57.342Z,0.50
2023-08-06T04:52:24.052Z,0.60
2023-08-06T04:54:50.753Z,0.70
2023-08-06T04:57:17.475Z,0.50
2023-08-06T04:59:44.238Z,0.50
2023-08-06T05:02:11.062Z,0.60
2023-08-06T05:04:37.881Z,0.57
2023-08-06T05:07:04.591Z,0.50
2023-08-06T05:09:31.539Z,0.60
2023-08-06T05:11:58.230Z,0.50
2023-08-06T05:14:24.943Z,0.50
2023-08-06T05:16:51.654Z,0.50
2023-08-06T05:19:18.377Z,0.50
2023-08-06T05:21:45.126Z,0.50
2023-08-06T05:24:11.825Z,0.43
2023-08-06T05:26:38.745Z,0.50
2023-08-06T05:29:05.453Z,0.50
2023-08-06T05:31:32.403Z,0.50
2023-08-06T05:33:59.118Z,0.50
2023-08-06T05:36:27.676Z,0.55
2023-08-06T05:38:55.705Z,0.50
2023-08-06T05:41:22.419Z,0.43
2023-08-06T05:43:49.122Z,0.50
2023-08-06T05:46:15.842Z,0.50
2023-08-06T05:48:42.578Z,0.40
2023-08-06T05:51:09.308Z,0.47
2023-08-06T05:53:36.221Z,0.47
2023-08-06T05:56:02.960Z,0.50
2023-08-06T05:58:29.671Z,0.40
2023-08-06T06:00:56.422Z,0.40
2023-08-06T06:03:23.170Z,0.40
2023-08-06T06:05:49.883Z,0.50
2023-08-06T06:08:16.561Z,0.40
2023-08-06T06:10:43.492Z,0.50
2023-08-06T06:13:10.677Z,0.50
2023-08-06T06:15:37.556Z,0.40
2023-08-06T06:18:04.343Z,0.30
2023-08-06T06:20:31.091Z,0.43
2023-08-06T06:22:57.806Z,0.40
2023-08-06T06:25:24.498Z,0.45
2023-08-06T06:27:51.423Z,0.30
2023-08-06T06:30:18.100Z,0.40
2023-08-06T06:32:44.847Z,0.30
2023-08-06T06:35:11.801Z,0.30
2023-08-06T06:37:38.524Z,0.38
2023-08-06T06:40:05.212Z,0.30
2023-08-06T06:42:31.928Z,0.40
2023-08-06T06:44:58.888Z,0.40
2023-08-06T06:47:25.594Z,0.47
2023-08-06T06:49:52.360Z,0.40
2023-08-06T06:52:19.083Z,0.40
2023-08-06T06:54:45.806Z,0.30
2023-08-06T06:57:12.847Z,0.30
2023-08-06T06:59:39.587Z,0.30
2023-08-06T07:02:06.330Z,0.40
2023-08-06T07:04:33.080Z,0.32
2023-08-06T07:06:59.778Z,0.30
2023-08-06T07:09:26.494Z,0.30
2023-08-06T07:11:53.320Z,0.30
2023-08-06T07:14:20.285Z,0.30
2023-08-06T07:16:47.013Z,0.30
2023-08-06T07:19:13.985Z,0.30
2023-08-06T07:21:40.702Z,0.30
2023-08-06T07:24:07.406Z,0.30
2023-08-06T07:26:34.172Z,0.40
2023-08-06T07:29:00.873Z,0.30
2023-08-06T07:31:27.652Z,0.35
2023-08-06T07:33:54.377Z,0.40
2023-08-06T07:36:21.413Z,0.32
2023-08-06T07:38:48.140Z,0.38
2023-08-06T07:41:14.862Z,0.30
2023-08-06T07:43:41.541Z,0.30
2023-08-06T07:46:08.262Z,0.20
2023-08-06T07:48:34.998Z,0.30
2023-08-06T07:51:01.718Z,0.30
2023-08-06T07:53:28.654Z,0.40
2023-08-06T07:55:55.374Z,0.30
2023-08-06T07:58:22.331Z,0.30
2023-08-06T08:00:49.084Z,0.30
2023-08-06T08:03:15.913Z,0.40
2023-08-06T08:05:42.633Z,0.40
2023-08-06T08:08:09.335Z,0.30
2023-08-06T08:10:36.065Z,0.30
2023-08-06T08:13:02.796Z,0.38
2023-08-06T08:15:29.496Z,0.32
2023-08-06T08:17:56.290Z,0.25
2023-08-06T08:20:23.028Z,0.30
2023-08-06T08:22:49.803Z,0.27
2023-08-06T08:25:16.726Z,0.30
2023-08-06T08:27:43.420Z,0.30
2023-08-06T08:30:10.148Z,0.30
2023-08-06T08:32:36.872Z,0.30
2023-08-06T08:35:03.593Z,0.40
2023-08-06T08:37:30.516Z,0.20
2023-08-06T08:39:57.207Z,0.30
2023-08-06T08:42:23.922Z,0.30
2023-08-06T08:44:50.677Z,0.22
2023-08-06T08:47:17.372Z,0.30
2023-08-06T08:49:44.124Z,0.32
2023-08-06T08:52:10.849Z,0.30
2023-08-06T08:54:37.785Z,0.30
2023-08-06T08:57:04.514Z,0.30
2023-08-06T08:59:31.254Z,0.20
2023-08-06T09:01:58.171Z,0.30
2023-08-06T09:04:25.059Z,0.30
2023-08-06T09:06:51.782Z,0.30
2023-08-06T09:09:18.544Z,0.20
2023-08-06T09:11:45.485Z,0.30
2023-08-06T09:14:12.225Z,0.30
2023-08-06T09:16:39.004Z,0.30
2023-08-06T09:19:05.766Z,0.30
2023-08-06T09:21:32.491Z,0.30
2023-08-06T09:23:59.201Z,0.20
2023-08-06T09:26:25.908Z,0.20
2023-08-06T09:28:52.856Z,0.30
2023-08-06T09:31:19.561Z,0.30
2023-08-06T09:33:46.284Z,0.30
2023-08-06T09:36:13.028Z,0.30
2023-08-06T09:38:39.966Z,0.30
2023-08-06T09:41:06.701Z,0.25
2023-08-06T09:43:33.425Z,0.30
2023-08-06T09:46:00.205Z,0.30
2023-08-06T09:48:27.055Z,0.23
2023-08-06T09:50:53.965Z,0.30
2023-08-06T09:53:20.651Z,0.30
2023-08-06T09:55:47.378Z,0.30
2023-08-06T09:58:14.293Z,0.30
2023-08-06T10:00:41.000Z,0.30
2023-08-06T10:03:07.808Z,0.20
2023-08-06T10:05:34.625Z,0.30
2023-08-06T10:08:01.336Z,0.30
2023-08-06T10:10:28.028Z,0.30
2023-08-06T10:12:54.727Z,0.30
2023-08-06T10:15:21.426Z,0.28
2023-08-06T10:17:51.271Z,0.30
2023-08-06T10:20:18.539Z,0.30
2023-08-06T10:22:45.265Z,0.30
2023-08-06T10:25:11.986Z,0.30
2023-08-06T10:27:38.691Z,0.22
2023-08-06T10:30:05.658Z,0.30
2023-08-06T10:32:32.438Z,0.30
2023-08-06T10:34:59.196Z,0.30
2023-08-06T10:37:25.930Z,0.30
2023-08-06T10:39:52.650Z,0.20
2023-08-06T10:42:19.400Z,0.40
2023-08-06T10:44:46.341Z,0.30
2023-08-06T10:47:13.049Z,0.30
2023-08-06T10:49:39.761Z,0.20
2023-08-06T10:52:06.443Z,0.25
2023-08-06T10:54:33.148Z,0.30
2023-08-06T10:56:59.851Z,0.30
2023-08-06T10:59:26.552Z,0.30
2023-08-06T11:01:53.611Z,0.30
2023-08-06T11:04:20.508Z,0.30
2023-08-06T11:06:47.208Z,0.30
2023-08-06T11:09:13.899Z,0.20
2023-08-06T11:11:40.592Z,0.30
2023-08-06T11:14:07.325Z,0.23
2023-08-06T11:16:34.061Z,0.30
2023-08-06T11:19:00.842Z,0.20
2023-08-06T11:21:27.565Z,0.30
2023-08-06T11:23:54.347Z,0.22
2023-08-06T11:26:21.208Z,0.30
2023-08-06T11:28:47.944Z,0.20
2023-08-06T11:31:14.701Z,0.30
2023-08-06T11:33:41.437Z,0.20
2023-08-06T11:36:08.145Z,0.20
2023-08-06T11:38:34.833Z,0.30
2023-08-06T11:41:01.552Z,0.30
2023-08-06T11:43:28.270Z,0.20
2023-08-06T11:45:55.029Z,0.30
2023-08-06T11:48:21.866Z,0.28
2023-08-06T11:50:48.604Z,0.27
2023-08-06T11:53:15.336Z,0.20
2023-08-06T11:55:42.310Z,0.20
2023-08-06T11:58:09.048Z,0.30
2023-08-06T12:00:35.797Z,0.20
2023-08-06T12:03:02.544Z,0.20
2023-08-06T12:05:29.302Z,0.30
2023-08-06T12:07:56.035Z,0.20
2023-08-06T12:10:22.714Z,0.20
2023-08-06T12:12:49.395Z,0.30
2023-08-06T12:15:16.111Z,0.20
2023-08-06T12:17:42.878Z,0.28
2023-08-06T12:20:09.680Z,0.20
2023-08-06T12:22:36.456Z,0.20
2023-08-06T12:25:03.213Z,0.20
2023-08-06T12:27:29.927Z,0.20
2023-08-06T12:29:56.633Z,0.30
2023-08-06T12:32:23.353Z,0.20
2023-08-06T12:34:53.188Z,0.30
2023-08-06T12:37:20.613Z,0.20
2023-08-06T12:39:47.498Z,0.20
2023-08-06T12:42:14.232Z,0.30
2023-08-06T12:44:40.949Z,0.17
2023-08-06T12:47:07.933Z,0.20
2023-08-06T12:49:34.781Z,0.30
2023-08-06T12:52:01.747Z,0.20
2023-08-06T12:54:28.466Z,0.20
2023-08-06T12:56:55.457Z,0.20
2023-08-06T12:59:22.234Z,0.20
2023-08-06T13:01:49.346Z,0.20
2023-08-06T13:04:22.003Z,0.20
2023-08-06T13:06:49.779Z,0.30
2023-08-06T13:09:16.525Z,0.30
2023-08-06T13:11:43.278Z,0.30
2023-08-06T13:14:09.977Z,0.20
2023-08-06T13:16:36.680Z,0.20
2023-08-06T13:19:03.444Z,0.30
2023-08-06T13:21:30.132Z,0.20
2023-08-06T13:23:56.841Z,0.20
2023-08-06T13:26:23.537Z,0.20
2023-08-06T13:28:50.210Z,0.20
2023-08-06T13:31:16.931Z,0.30
2023-08-06T13:33:43.668Z,0.30
2023-08-06T13:36:10.361Z,0.20
2023-08-06T13:38:37.059Z,0.20
2023-08-06T13:41:03.785Z,0.30
2023-08-06T13:43:30.499Z,0.20
2023-08-06T13:45:57.252Z,0.30
2023-08-06T13:48:24.035Z,0.22
2023-08-06T13:50:50.745Z,0.20
2023-08-06T13:53:17.709Z,0.20
2023-08-06T13:55:44.426Z,0.20
2023-08-06T13:58:11.404Z,0.30
2023-08-06T14:00:38.487Z,0.25
2023-08-06T14:03:05.312Z,0.30
2023-08-06T14:05:32.076Z,0.27
2023-08-06T14:07:58.787Z,0.30
2023-08-06T14:10:25.526Z,0.20
2023-08-06T14:13:05.354Z,0.20
2023-08-06T14:15:37.033Z,0.20
2023-08-06T14:18:03.805Z,0.30
2023-08-06T14:20:30.572Z,0.20
2023-08-06T14:22:57.524Z,0.30
2023-08-06T14:25:26.841Z,0.30
2023-08-06T14:27:53.545Z,0.25
2023-08-06T14:30:20.226Z,0.20
2023-08-06T14:32:46.976Z,0.30
2023-08-06T14:35:13.690Z,0.28
2023-08-06T14:37:40.658Z,0.30
2023-08-06T14:40:07.393Z,0.30
2023-08-06T14:42:34.111Z,0.30
2023-08-06T14:45:00.842Z,0.30
2023-08-06T14:47:27.545Z,0.30
2023-08-06T14:49:54.264Z,0.20
2023-08-06T14:52:20.993Z,0.30
2023-08-06T14:54:49.750Z,0.40
2023-08-06T14:57:16.450Z,0.40
2023-08-06T14:59:43.432Z,0.40
2023-08-06T15:02:10.130Z,0.50
2023-08-06T15:04:37.111Z,0.60
2023-08-06T15:07:03.820Z,0.40
2023-08-06T15:09:30.779Z,0.40
2023-08-06T15:11:57.490Z,0.40
2023-08-06T15:14:24.450Z,0.40
2023-08-06T15:16:51.207Z,0.50
2023-08-06T15:19:18.245Z,0.50
2023-08-06T15:21:44.944Z,0.38
2023-08-06T15:24:11.895Z,0.40
2023-08-06T15:26:38.604Z,0.40
2023-08-06T15:29:05.311Z,0.30
2023-08-06T15:31:32.020Z,0.40
2023-08-06T15:33:58.887Z,0.60
2023-08-06T15:36:25.611Z,0.40
2023-08-06T15:38:52.322Z,0.50
2023-08-06T15:41:19.056Z,0.40
2023-08-06T15:43:45.805Z,0.40
2023-08-06T15:46:12.567Z,0.40
2023-08-06T15:48:39.266Z,0.73
2023-08-06T15:51:05.972Z,0.40
2023-08-06T15:53:32.701Z,0.60
2023-08-06T15:55:59.420Z,0.60
2023-08-06T15:58:26.112Z,0.40
2023-08-06T16:00:52.811Z,0.60
2023-08-06T16:03:19.514Z,0.57
2023-08-06T16:05:46.220Z,0.57
2023-08-06T16:08:12.933Z,0.50
2023-08-06T16:10:39.612Z,0.50
2023-08-06T16:13:06.317Z,0.50
2023-08-06T16:15:33.025Z,0.50
2023-08-06T16:17:59.765Z,0.63
2023-08-06T16:20:26.492Z,0.50
2023-08-06T16:22:54.154Z,0.50
2023-08-06T16:25:20.889Z,0.60
2023-08-06T16:27:47.743Z,0.60
2023-08-06T16:30:14.581Z,0.50
2023-08-06T16:32:41.343Z,0.50
2023-08-06T16:35:08.078Z,0.50
2023-08-06T16:37:34.787Z,0.57
2023-08-06T16:40:01.479Z,0.47
2023-08-06T16:42:28.197Z,0.63
2023-08-06T16:44:55.175Z,0.50
2023-08-06T16:47:21.847Z,0.55
2023-08-06T16:49:48.854Z,0.60
2023-08-06T16:52:15.572Z,0.60
2023-08-06T16:54:42.529Z,0.60
2023-08-06T16:57:09.243Z,0.60
2023-08-06T16:59:35.974Z,0.60
2023-08-06T17:02:02.679Z,0.50
2023-08-06T17:04:29.378Z,0.50
2023-08-06T17:06:56.229Z,0.55
2023-08-06T17:09:23.070Z,0.50
2023-08-06T17:11:49.794Z,0.60
2023-08-06T17:14:16.506Z,0.57
2023-08-06T17:16:43.189Z,0.60
2023-08-06T17:19:09.879Z,0.50
2023-08-06T17:21:36.839Z,0.60
2023-08-06T17:24:03.555Z,0.50
2023-08-06T17:26:30.538Z,0.50
2023-08-06T17:28:57.248Z,0.70
2023-08-06T17:31:24.289Z,0.60
2023-08-06T17:33:51.024Z,0.40
2023-08-06T17:36:18.014Z,0.70
2023-08-06T17:38:44.694Z,0.50
2023-08-06T17:41:11.656Z,0.77
2023-08-06T17:43:38.391Z,0.60
2023-08-06T17:46:05.364Z,0.53
2023-08-06T17:48:32.075Z,0.60
2023-08-06T17:50:59.071Z,0.47
2023-08-06T17:53:25.776Z,0.50
2023-08-06T17:55:52.512Z,0.60
2023-08-06T17:58:19.228Z,0.57
2023-08-06T18:00:45.980Z,0.65
2023-08-06T18:03:12.830Z,0.60
2023-08-06T18:05:39.561Z,0.60
2023-08-06T18:08:06.248Z,0.50
2023-08-06T18:10:32.963Z,0.50
2023-08-06T18:12:59.684Z,0.80
2023-08-06T18:15:26.383Z,0.50
2023-08-06T18:17:53.103Z,0.60
2023-08-06T18:20:19.910Z,0.60
2023-08-06T18:22:46.622Z,0.60
2023-08-06T18:25:13.314Z,0.60
2023-08-06T18:27:40.036Z,0.50
2023-08-06T18:30:06.760Z,0.55
2023-08-06T18:32:33.512Z,0.60
2023-08-06T18:35:00.220Z,0.50
2023-08-06T18:37:26.962Z,0.70
2023-08-06T18:39:53.700Z,0.70
2023-08-06T18:42:20.414Z,0.52
2023-08-06T18:44:47.105Z,0.60
2023-08-06T18:47:13.819Z,0.77
2023-08-06T18:49:40.521Z,0.60
2023-08-06T18:52:07.242Z,0.90
2023-08-06T18:54:34.141Z,0.60
2023-08-06T18:57:00.822Z,0.70
2023-08-06T18:59:27.546Z,0.60
2023-08-06T19:01:54.280Z,0.60
2023-08-06T19:04:21.015Z,0.57
2023-08-06T19:06:47.721Z,0.50
2023-08-06T19:09:15.241Z,0.60
2023-08-06T19:11:41.971Z,0.63
2023-08-06T19:14:08.709Z,0.45
2023-08-06T19:16:35.453Z,0.70
2023-08-06T19:19:02.400Z,0.63
2023-08-06T19:21:29.326Z,0.57
2023-08-06T19:23:56.247Z,0.67
2023-08-06T19:26:23.179Z,0.60
2023-08-06T19:28:49.903Z,0.60
2023-08-06T19:31:19.491Z,0.70
2023-08-06T19:33:46.297Z,0.70
2023-08-06T19:36:14.051Z,0.63
2023-08-06T19:38:40.766Z,0.70
2023-08-06T19:41:07.710Z,0.80
2023-08-06T19:43:34.473Z,0.60
2023-08-06T19:46:01.269Z,0.65
2023-08-06T19:48:28.225Z,0.70
2023-08-06T19:50:55.157Z,0.60
2023-08-06T19:53:21.860Z,0.68
2023-08-06T19:55:48.563Z,0.70
2023-08-06T19:58:15.665Z,0.80
2023-08-06T20:00:42.378Z,0.63
2023-08-06T20:03:10.197Z,0.70
2023-08-06T20:05:36.966Z,0.70
2023-08-06T20:08:03.660Z,0.70
2023-08-06T20:10:30.352Z,0.70
2023-08-06T20:12:57.055Z,0.90
2023-08-06T20:15:23.750Z,0.77
2023-08-06T20:17:50.707Z,0.90
2023-08-06T20:20:17.671Z,0.70
2023-08-06T20:22:44.360Z,0.80
2023-08-06T20:25:11.103Z,0.77
2023-08-06T20:27:37.838Z,0.80
2023-08-06T20:30:04.781Z,0.75
2023-08-06T20:32:31.478Z,0.75
2023-08-06T20:34:59.202Z,0.63
2023-08-06T20:37:25.918Z,0.50
2023-08-06T20:39:52.637Z,0.75
2023-08-06T20:42:19.350Z,0.85
2023-08-06T20:44:46.041Z,1.10
2023-08-06T20:47:12.770Z,0.70
2023-08-06T20:49:39.696Z,0.70
2023-08-06T20:52:06.366Z,0.60
2023-08-06T20:54:33.057Z,0.57
2023-08-06T20:56:59.766Z,0.80
2023-08-06T20:59:26.698Z,0.70
2023-08-06T21:01:53.709Z,0.70
2023-08-06T21:04:20.699Z,0.52
2023-08-06T21:06:47.422Z,0.60
2023-08-06T21:09:14.146Z,0.50
2023-08-06T21:11:40.863Z,0.70
2023-08-06T21:14:07.835Z,0.60
2023-08-06T21:16:34.564Z,0.60
2023-08-06T21:19:05.488Z,0.70
2023-08-06T21:21:32.558Z,0.55
2023-08-06T21:23:59.463Z,0.60
2023-08-06T21:26:26.177Z,0.70
2023-08-06T21:28:52.897Z,0.70
2023-08-06T21:31:19.727Z,0.70
2023-08-06T21:33:46.454Z,0.60
2023-08-06T21:36:13.351Z,0.70
2023-08-06T21:38:40.056Z,0.60
2023-08-06T21:41:07.024Z,0.70
2023-08-06T21:43:33.745Z,0.60
2023-08-06T21:46:00.452Z,0.70
2023-08-06T21:48:27.152Z,0.60
2023-08-06T21:50:53.879Z,0.70
2023-08-06T21:53:20.581Z,0.70
2023-08-06T21:55:47.283Z,0.70
2023-08-06T21:58:13.994Z,0.68
2023-08-06T22:00:40.725Z,0.60
2023-08-06T22:03:07.753Z,0.60
2023-08-06T22:05:34.519Z,0.63
2023-08-06T22:08:01.290Z,0.70
2023-08-06T22:10:27.976Z,0.60
2023-08-06T22:12:54.898Z,0.70
2023-08-06T22:15:21.612Z,0.67
2023-08-06T22:17:48.357Z,0.70
2023-08-06T22:20:15.088Z,0.50
2023-08-06T22:22:41.802Z,0.80
2023-08-06T22:25:08.532Z,0.70
2023-08-06T22:27:35.261Z,0.60
2023-08-06T22:30:01.948Z,0.57
2023-08-06T22:32:28.656Z,0.70
2023-08-06T22:34:55.363Z,0.63
2023-08-06T22:37:22.057Z,0.60
2023-08-06T22:39:48.954Z,0.60
2023-08-06T22:42:15.650Z,0.65
2023-08-06T22:44:42.343Z,0.60
2023-08-06T22:47:09.331Z,0.60
2023-08-06T22:49:36.027Z,0.65
2023-08-06T22:52:02.726Z,0.60
2023-08-06T22:54:29.425Z,0.60
2023-08-06T22:56:56.149Z,0.60
2023-08-06T22:59:22.847Z,0.50
2023-08-06T23:01:49.815Z,0.70
2023-08-06T23:04:17.060Z,0.60
2023-08-06T23:06:43.963Z,0.50
2023-08-06T23:09:10.706Z,0.60
2023-08-06T23:11:37.438Z,0.70
2023-08-06T23:14:04.144Z,0.50
2023-08-06T23:16:30.818Z,0.60
2023-08-06T23:18:57.530Z,0.60
2023-08-06T23:21:24.251Z,0.65
2023-08-06T23:23:51.180Z,0.52
2023-08-06T23:26:17.886Z,0.75
2023-08-06T23:28:44.595Z,0.70
2023-08-06T23:31:11.553Z,0.70
2023-08-06T23:33:38.301Z,0.60
2023-08-06T23:36:05.035Z,0.60
2023-08-06T23:38:31.731Z,0.60
2023-08-06T23:40:58.664Z,0.50
2023-08-06T23:43:25.365Z,0.50
2023-08-06T23:45:52.407Z,0.55
2023-08-06T23:48:19.189Z,0.65
2023-08-06T23:50:45.926Z,0.70
2023-08-06T23:53:12.643Z,0.60
2023-08-06T23:55:39.365Z,0.70
2023-08-06T23:58:06.079Z,0.70
